sensor_id;sensor_type;location;lat;lon;timestamp;pressure;altitude;pressure_sealevel;temperature;humidity
5574;BME280;2563;52.242;7.956;2024-03-08T00:00:22;101050.56;;;-0.11;100.00
5574;BME280;2563;52.242;7.956;2024-03-08T00:02:48;101052.00;;;-0.20;100.00
5574;BME280;2563;52.242;7.956;2024-03-08T00:05:16;101053.63;;;-0.23;100.00
5574;BME280;2563;52.242;7.956;2024-03-08T00:07:41;101062.06;;;-0.52;100.00
5574;BME280;2563;52.242;7.956;2024-03-08T00:10:10;101059.53;;;-0.81;100.00
5574;BME280;2563;52.242;7.956;2024-03-08T00:12:42;101053.88;;;-0.72;100.00
5574;BME280;2563;52.242;7.956;2024-03-08T00:15:12;101060.31;;;-0.55;100.00
5574;BME280;2563;52.242;7.956;2024-03-08T00:17:40;101068.75;;;-0.54;100.00
5574;BME280;2563;52.242;7.956;2024-03-08T00:20:06;101067.84;;;-0.56;100.00
5574;BME280;2563;52.242;7.956;2024-03-08T00:22:37;101076.75;;;-0.69;100.00
5574;BME280;2563;52.242;7.956;2024-03-08T00:25:03;101085.66;;;-0.80;100.00
5574;BME280;2563;52.242;7.956;2024-03-08T00:27:29;101085.31;;;-0.91;100.00
5574;BME280;2563;52.242;7.956;2024-03-08T00:29:56;101079.16;;;-0.99;100.00
5574;BME280;2563;52.242;7.956;2024-03-08T00:32:21;101084.44;;;-0.93;100.00
5574;BME280;2563;52.242;7.956;2024-03-08T00:34:49;101097.84;;;-0.67;100.00
5574;BME280;2563;52.242;7.956;2024-03-08T00:37:17;101153.38;;;-0.43;100.00
5574;BME280;2563;52.242;7.956;2024-03-08T00:39:42;101151.84;;;-0.36;100.00
5574;BME280;2563;52.242;7.956;2024-03-08T00:42:08;101168.28;;;-0.24;100.00
5574;BME280;2563;52.242;7.956;2024-03-08T00:44:33;101210.50;;;-0.48;100.00
5574;BME280;2563;52.242;7.956;2024-03-08T00:46:58;101324.97;;;-0.54;100.00
5574;BME280;2563;52.242;7.956;2024-03-08T00:49:24;101317.06;;;-0.63;100.00
5574;BME280;2563;52.242;7.956;2024-03-08T00:51:50;101333.69;;;-0.70;100.00
5574;BME280;2563;52.242;7.956;2024-03-08T00:54:15;101351.84;;;-0.56;100.00
5574;BME280;2563;52.242;7.956;2024-03-08T00:56:42;101367.44;;;-0.44;100.00
5574;BME280;2563;52.242;7.956;2024-03-08T00:59:07;101475.50;;;-0.39;100.00
5574;BME280;2563;52.242;7.956;2024-03-08T01:01:32;101475.50;;;-0.39;100.00
5574;BME280;2563;52.242;7.956;2024-03-08T01:03:58;101461.06;;;-0.42;100.00
5574;BME280;2563;52.242;7.956;2024-03-08T01:06:23;101496.81;;;-0.33;100.00
5574;BME280;2563;52.242;7.956;2024-03-08T01:08:49;101497.00;;;-0.27;100.00
5574;BME280;2563;52.242;7.956;2024-03-08T01:11:18;101495.53;;;-0.22;100.00
5574;BME280;2563;52.242;7.956;2024-03-08T01:13:44;101488.13;;;-0.15;100.00
5574;BME280;2563;52.242;7.956;2024-03-08T01:16:12;101491.84;;;-0.06;100.00
5574;BME280;2563;52.242;7.956;2024-03-08T01:18:38;101487.88;;;0.01;100.00
5574;BME280;2563;52.242;7.956;2024-03-08T01:21:03;101466.94;;;0.07;100.00
5574;BME280;2563;52.242;7.956;2024-03-08T01:23:29;101454.44;;;0.11;100.00
5574;BME280;2563;52.242;7.956;2024-03-08T01:25:55;101434.41;;;0.17;100.00
5574;BME280;2563;52.242;7.956;2024-03-08T01:28:25;101414.25;;;0.20;100.00
5574;BME280;2563;52.242;7.956;2024-03-08T01:30:51;101392.38;;;0.23;100.00
5574;BME280;2563;52.242;7.956;2024-03-08T01:33:22;101362.69;;;0.17;100.00
5574;BME280;2563;52.242;7.956;2024-03-08T01:35:47;101338.16;;;0.16;100.00
5574;BME280;2563;52.242;7.956;2024-03-08T01:38:13;101307.63;;;0.10;100.00
5574;BME280;2563;52.242;7.956;2024-03-08T01:40:38;101287.31;;;0.08;100.00
5574;BME280;2563;52.242;7.956;2024-03-08T01:43:17;101244.63;;;-0.08;100.00
5574;BME280;2563;52.242;7.956;2024-03-08T01:45:43;101233.59;;;-0.10;100.00
5574;BME280;2563;52.242;7.956;2024-03-08T01:48:08;101215.88;;;-0.10;100.00
5574;BME280;2563;52.242;7.956;2024-03-08T01:50:33;101196.41;;;-0.13;100.00
5574;BME280;2563;52.242;7.956;2024-03-08T01:52:59;101174.47;;;-0.14;100.00
5574;BME280;2563;52.242;7.956;2024-03-08T01:55:25;101160.00;;;-0.18;100.00
5574;BME280;2563;52.242;7.956;2024-03-08T01:57:52;101136.66;;;-0.09;100.00
5574;BME280;2563;52.242;7.956;2024-03-08T02:00:18;101126.63;;;-0.06;100.00
5574;BME280;2563;52.242;7.956;2024-03-08T02:02:46;101099.59;;;-0.07;100.00
5574;BME280;2563;52.242;7.956;2024-03-08T02:05:12;101078.41;;;-0.11;100.00
5574;BME280;2563;52.242;7.956;2024-03-08T02:07:41;101052.41;;;-0.05;100.00
5574;BME280;2563;52.242;7.956;2024-03-08T02:10:09;101044.03;;;-0.04;100.00
5574;BME280;2563;52.242;7.956;2024-03-08T02:12:35;101030.38;;;-0.09;100.00
5574;BME280;2563;52.242;7.956;2024-03-08T02:15:01;101018.47;;;-0.13;100.00
5574;BME280;2563;52.242;7.956;2024-03-08T02:17:26;101000.69;;;-0.16;100.00
5574;BME280;2563;52.242;7.956;2024-03-08T02:19:51;100983.56;;;-0.25;100.00
5574;BME280;2563;52.242;7.956;2024-03-08T02:22:16;100969.22;;;-0.26;100.00
5574;BME280;2563;52.242;7.956;2024-03-08T02:24:42;100964.44;;;-0.15;100.00
5574;BME280;2563;52.242;7.956;2024-03-08T02:27:08;100951.97;;;-0.08;100.00
5574;BME280;2563;52.242;7.956;2024-03-08T02:29:36;100953.00;;;-0.01;100.00
5574;BME280;2563;52.242;7.956;2024-03-08T02:32:02;100931.78;;;-0.06;100.00
5574;BME280;2563;52.242;7.956;2024-03-08T02:34:28;100921.00;;;0.01;100.00
5574;BME280;2563;52.242;7.956;2024-03-08T02:36:54;100906.56;;;-0.03;100.00
5574;BME280;2563;52.242;7.956;2024-03-08T02:39:21;100888.78;;;-0.06;100.00
5574;BME280;2563;52.242;7.956;2024-03-08T02:41:47;100881.13;;;-0.09;100.00
5574;BME280;2563;52.242;7.956;2024-03-08T02:44:12;100873.25;;;-0.20;100.00
5574;BME280;2563;52.242;7.956;2024-03-08T02:46:38;100858.06;;;-0.22;100.00
5574;BME280;2563;52.242;7.956;2024-03-08T02:49:03;100847.09;;;-0.20;100.00
5574;BME280;2563;52.242;7.956;2024-03-08T02:51:29;100837.81;;;-0.22;100.00
5574;BME280;2563;52.242;7.956;2024-03-08T02:53:56;100839.59;;;-0.17;100.00
5574;BME280;2563;52.242;7.956;2024-03-08T02:56:21;100834.63;;;-0.14;100.00
5574;BME280;2563;52.242;7.956;2024-03-08T02:58:47;100828.84;;;-0.09;100.00
5574;BME280;2563;52.242;7.956;2024-03-08T03:01:14;100817.31;;;0.04;100.00
5574;BME280;2563;52.242;7.956;2024-03-08T03:03:40;100807.28;;;0.09;100.00
5574;BME280;2563;52.242;7.956;2024-03-08T03:06:06;100792.00;;;0.04;100.00
5574;BME280;2563;52.242;7.956;2024-03-08T03:08:32;100778.72;;;0.13;100.00
5574;BME280;2563;52.242;7.956;2024-03-08T03:10:57;100765.13;;;0.08;100.00
5574;BME280;2563;52.242;7.956;2024-03-08T03:13:23;100749.09;;;0.09;100.00
5574;BME280;2563;52.242;7.956;2024-03-08T03:15:48;100740.69;;;0.10;100.00
5574;BME280;2563;52.242;7.956;2024-03-08T03:18:14;100729.69;;;0.08;100.00
5574;BME280;2563;52.242;7.956;2024-03-08T03:20:40;100711.94;;;0.06;100.00
5574;BME280;2563;52.242;7.956;2024-03-08T03:23:10;100706.03;;;0.07;100.00
5574;BME280;2563;52.242;7.956;2024-03-08T03:25:39;100700.16;;;0.08;100.00
5574;BME280;2563;52.242;7.956;2024-03-08T03:28:06;100688.41;;;0.10;100.00
5574;BME280;2563;52.242;7.956;2024-03-08T03:30:32;100682.28;;;0.01;100.00
5574;BME280;2563;52.242;7.956;2024-03-08T03:32:59;100669.50;;;-0.07;100.00
5574;BME280;2563;52.242;7.956;2024-03-08T03:35:26;100668.81;;;0.00;100.00
5574;BME280;2563;52.242;7.956;2024-03-08T03:37:52;100667.81;;;-0.05;100.00
5574;BME280;2563;52.242;7.956;2024-03-08T03:40:36;100653.38;;;-0.11;100.00
5574;BME280;2563;52.242;7.956;2024-03-08T03:43:02;100654.22;;;-0.10;100.00
5574;BME280;2563;52.242;7.956;2024-03-08T03:45:28;100649.16;;;-0.10;100.00
5574;BME280;2563;52.242;7.956;2024-03-08T03:47:54;100640.97;;;0.00;100.00
5574;BME280;2563;52.242;7.956;2024-03-08T03:50:20;100635.78;;;-0.06;100.00
5574;BME280;2563;52.242;7.956;2024-03-08T03:52:48;100626.41;;;-0.10;100.00
5574;BME280;2563;52.242;7.956;2024-03-08T03:55:14;100619.59;;;-0.14;100.00
5574;BME280;2563;52.242;7.956;2024-03-08T03:57:40;100616.09;;;-0.19;100.00
5574;BME280;2563;52.242;7.956;2024-03-08T04:00:07;100620.34;;;-0.18;100.00
5574;BME280;2563;52.242;7.956;2024-03-08T04:02:39;100614.53;;;-0.14;100.00
5574;BME280;2563;52.242;7.956;2024-03-08T04:05:06;100602.69;;;-0.15;100.00
5574;BME280;2563;52.242;7.956;2024-03-08T04:07:32;100595.75;;;-0.24;100.00
5574;BME280;2563;52.242;7.956;2024-03-08T04:09:57;100592.19;;;-0.35;100.00
5574;BME280;2563;52.242;7.956;2024-03-08T04:12:23;100589.50;;;-0.43;100.00
5574;BME280;2563;52.242;7.956;2024-03-08T04:14:48;100587.72;;;-0.47;100.00
5574;BME280;2563;52.242;7.956;2024-03-08T04:17:13;100591.13;;;-0.45;100.00
5574;BME280;2563;52.242;7.956;2024-03-08T04:19:39;100592.78;;;-0.47;100.00
5574;BME280;2563;52.242;7.956;2024-03-08T04:22:05;100599.53;;;-0.46;100.00
5574;BME280;2563;52.242;7.956;2024-03-08T04:24:32;100594.25;;;-0.55;100.00
5574;BME280;2563;52.242;7.956;2024-03-08T04:26:58;100596.09;;;-0.48;100.00
5574;BME280;2563;52.242;7.956;2024-03-08T04:29:24;100594.56;;;-0.43;100.00
5574;BME280;2563;52.242;7.956;2024-03-08T04:31:49;100593.66;;;-0.45;100.00
5574;BME280;2563;52.242;7.956;2024-03-08T04:34:14;100592.81;;;-0.44;100.00
5574;BME280;2563;52.242;7.956;2024-03-08T04:36:40;100591.00;;;-0.51;100.00
5574;BME280;2563;52.242;7.956;2024-03-08T04:39:05;100594.41;;;-0.49;100.00
5574;BME280;2563;52.242;7.956;2024-03-08T04:41:30;100583.44;;;-0.50;100.00
5574;BME280;2563;52.242;7.956;2024-03-08T04:43:57;100588.50;;;-0.48;100.00
5574;BME280;2563;52.242;7.956;2024-03-08T04:46:23;100582.47;;;-0.56;100.00
5574;BME280;2563;52.242;7.956;2024-03-08T04:48:48;100579.25;;;-0.49;100.00
5574;BME280;2563;52.242;7.956;2024-03-08T04:51:14;100585.03;;;-0.53;100.00
5574;BME280;2563;52.242;7.956;2024-03-08T04:53:41;100573.25;;;-0.54;100.00
5574;BME280;2563;52.242;7.956;2024-03-08T04:56:06;100574.13;;;-0.51;100.00
5574;BME280;2563;52.242;7.956;2024-03-08T04:58:35;100569.13;;;-0.49;100.00
5574;BME280;2563;52.242;7.956;2024-03-08T05:01:01;100564.31;;;-0.37;100.00
5574;BME280;2563;52.242;7.956;2024-03-08T05:03:26;100563.72;;;-0.25;100.00
5574;BME280;2563;52.242;7.956;2024-03-08T05:05:52;100552.81;;;-0.23;100.00
5574;BME280;2563;52.242;7.956;2024-03-08T05:08:18;100545.97;;;-0.27;100.00
5574;BME280;2563;52.242;7.956;2024-03-08T05:10:44;100530.75;;;-0.30;100.00
5574;BME280;2563;52.242;7.956;2024-03-08T05:13:09;100530.78;;;-0.27;100.00
5574;BME280;2563;52.242;7.956;2024-03-08T05:15:34;100521.38;;;-0.35;100.00
5574;BME280;2563;52.242;7.956;2024-03-08T05:18:00;100517.91;;;-0.40;100.00
5574;BME280;2563;52.242;7.956;2024-03-08T05:20:25;100515.38;;;-0.40;100.00
5574;BME280;2563;52.242;7.956;2024-03-08T05:22:51;100512.06;;;-0.36;100.00
5574;BME280;2563;52.242;7.956;2024-03-08T05:25:17;100510.41;;;-0.36;100.00
5574;BME280;2563;52.242;7.956;2024-03-08T05:27:43;100502.81;;;-0.36;100.00
5574;BME280;2563;52.242;7.956;2024-03-08T05:30:08;100511.25;;;-0.35;100.00
5574;BME280;2563;52.242;7.956;2024-03-08T05:32:42;100503.63;;;-0.37;100.00
5574;BME280;2563;52.242;7.956;2024-03-08T05:35:11;100495.25;;;-0.34;100.00
5574;BME280;2563;52.242;7.956;2024-03-08T05:37:40;100490.19;;;-0.36;100.00
5574;BME280;2563;52.242;7.956;2024-03-08T05:40:06;100489.31;;;-0.36;100.00
5574;BME280;2563;52.242;7.956;2024-03-08T05:42:35;100491.81;;;-0.38;100.00
5574;BME280;2563;52.242;7.956;2024-03-08T05:45:02;100495.19;;;-0.37;100.00
5574;BME280;2563;52.242;7.956;2024-03-08T05:47:27;100489.25;;;-0.39;100.00
5574;BME280;2563;52.242;7.956;2024-03-08T05:49:53;100485.88;;;-0.40;100.00
5574;BME280;2563;52.242;7.956;2024-03-08T05:52:19;100489.22;;;-0.43;100.00
5574;BME280;2563;52.242;7.956;2024-03-08T05:54:44;100489.22;;;-0.43;100.00
5574;BME280;2563;52.242;7.956;2024-03-08T05:57:11;100485.88;;;-0.40;100.00
5574;BME280;2563;52.242;7.956;2024-03-08T05:59:36;100486.81;;;-0.35;100.00
5574;BME280;2563;52.242;7.956;2024-03-08T06:02:01;100480.06;;;-0.36;100.00
5574;BME280;2563;52.242;7.956;2024-03-08T06:04:27;100475.88;;;-0.34;100.00
5574;BME280;2563;52.242;7.956;2024-03-08T06:06:52;100475.00;;;-0.36;100.00
5574;BME280;2563;52.242;7.956;2024-03-08T06:09:20;100475.00;;;-0.36;100.00
5574;BME280;2563;52.242;7.956;2024-03-08T06:11:48;100475.97;;;-0.29;100.00
5574;BME280;2563;52.242;7.956;2024-03-08T06:14:13;100472.63;;;-0.28;100.00
5574;BME280;2563;52.242;7.956;2024-03-08T06:16:47;100477.78;;;-0.24;100.00
5574;BME280;2563;52.242;7.956;2024-03-08T06:19:13;100470.19;;;-0.24;100.00
5574;BME280;2563;52.242;7.956;2024-03-08T06:21:39;100472.81;;;-0.17;100.00
5574;BME280;2563;52.242;7.956;2024-03-08T06:24:05;100465.31;;;-0.13;100.00
5574;BME280;2563;52.242;7.956;2024-03-08T06:26:30;100467.06;;;0.41;100.00
5574;BME280;2563;52.242;7.956;2024-03-08T06:28:56;100451.66;;;0.84;100.00
5574;BME280;2563;52.242;7.956;2024-03-08T06:31:22;100428.25;;;1.03;100.00
5574;BME280;2563;52.242;7.956;2024-03-08T06:33:48;100406.91;;;0.84;100.00
5574;BME280;2563;52.242;7.956;2024-03-08T06:36:16;100408.09;;;1.13;100.00
5574;BME280;2563;52.242;7.956;2024-03-08T06:38:45;100384.13;;;1.64;100.00
5574;BME280;2563;52.242;7.956;2024-03-08T06:41:11;100368.22;;;1.80;100.00
5574;BME280;2563;52.242;7.956;2024-03-08T06:43:43;100360.69;;;1.96;100.00
5574;BME280;2563;52.242;7.956;2024-03-08T06:46:08;100354.91;;;2.15;100.00
5574;BME280;2563;52.242;7.956;2024-03-08T06:48:34;100352.94;;;1.76;100.00
5574;BME280;2563;52.242;7.956;2024-03-08T06:51:00;100352.63;;;1.43;100.00
5574;BME280;2563;52.242;7.956;2024-03-08T06:53:25;100354.88;;;1.14;100.00
5574;BME280;2563;52.242;7.956;2024-03-08T06:55:51;100338.06;;;2.26;100.00
5574;BME280;2563;52.242;7.956;2024-03-08T06:58:16;100330.78;;;2.98;100.00
5574;BME280;2563;52.242;7.956;2024-03-08T07:00:42;100334.19;;;3.01;100.00
5574;BME280;2563;52.242;7.956;2024-03-08T07:03:08;100368.13;;;1.74;100.00
5574;BME280;2563;52.242;7.956;2024-03-08T07:05:37;100365.81;;;1.97;100.00
5574;BME280;2563;52.242;7.956;2024-03-08T07:08:03;100351.84;;;2.64;100.00
5574;BME280;2563;52.242;7.956;2024-03-08T07:10:29;100337.69;;;3.82;100.00
5574;BME280;2563;52.242;7.956;2024-03-08T07:12:54;100360.63;;;4.07;100.00
5574;BME280;2563;52.242;7.956;2024-03-08T07:15:20;100386.09;;;4.24;100.00
5574;BME280;2563;52.242;7.956;2024-03-08T07:17:46;100425.97;;;3.82;100.00
5574;BME280;2563;52.242;7.956;2024-03-08T07:20:12;100439.56;;;4.15;100.00
5574;BME280;2563;52.242;7.956;2024-03-08T07:22:39;100476.94;;;4.56;100.00
5574;BME280;2563;52.242;7.956;2024-03-08T07:25:05;100514.31;;;4.46;100.00
5574;BME280;2563;52.242;7.956;2024-03-08T07:27:52;100542.34;;;4.69;100.00
5574;BME280;2563;52.242;7.956;2024-03-08T07:30:19;100577.19;;;5.05;100.00
5574;BME280;2563;52.242;7.956;2024-03-08T07:33:03;100611.13;;;5.49;100.00
5574;BME280;2563;52.242;7.956;2024-03-08T07:35:29;100664.75;;;5.09;100.00
5574;BME280;2563;52.242;7.956;2024-03-08T07:37:55;100669.75;;;5.98;100.00
5574;BME280;2563;52.242;7.956;2024-03-08T07:40:21;100698.75;;;5.77;100.00
5574;BME280;2563;52.242;7.956;2024-03-08T07:42:46;100734.50;;;5.68;100.00
5574;BME280;2563;52.242;7.956;2024-03-08T07:45:12;100746.41;;;6.01;100.00
5574;BME280;2563;52.242;7.956;2024-03-08T07:47:38;100765.03;;;6.40;100.00
5574;BME280;2563;52.242;7.956;2024-03-08T07:50:03;100788.94;;;6.21;100.00
5574;BME280;2563;52.242;7.956;2024-03-08T07:52:29;100816.19;;;6.12;100.00
5574;BME280;2563;52.242;7.956;2024-03-08T07:54:54;100823.03;;;6.13;100.00
5574;BME280;2563;52.242;7.956;2024-03-08T07:57:20;100826.38;;;6.40;100.00
5574;BME280;2563;52.242;7.956;2024-03-08T07:59:46;100812.19;;;7.49;100.00
5574;BME280;2563;52.242;7.956;2024-03-08T08:02:11;100839.41;;;7.66;100.00
5574;BME280;2563;52.242;7.956;2024-03-08T08:04:36;100866.09;;;7.33;100.00
5574;BME280;2563;52.242;7.956;2024-03-08T08:07:03;100867.13;;;6.91;100.00
5574;BME280;2563;52.242;7.956;2024-03-08T08:09:28;100876.47;;;7.04;100.00
5574;BME280;2563;52.242;7.956;2024-03-08T08:11:54;100879.03;;;7.04;100.00
5574;BME280;2563;52.242;7.956;2024-03-08T08:14:20;100892.78;;;6.68;100.00
5574;BME280;2563;52.242;7.956;2024-03-08T08:16:46;100870.28;;;7.43;100.00
5574;BME280;2563;52.242;7.956;2024-03-08T08:19:14;100891.00;;;6.93;100.00
5574;BME280;2563;52.242;7.956;2024-03-08T08:21:39;100905.63;;;6.58;100.00
5574;BME280;2563;52.242;7.956;2024-03-08T08:24:05;100895.28;;;6.89;100.00
5574;BME280;2563;52.242;7.956;2024-03-08T08:26:31;100898.75;;;6.65;100.00
5574;BME280;2563;52.242;7.956;2024-03-08T08:28:58;100901.41;;;6.25;100.00
5574;BME280;2563;52.242;7.956;2024-03-08T08:31:23;100891.94;;;6.72;100.00
5574;BME280;2563;52.242;7.956;2024-03-08T08:33:48;100898.81;;;6.34;100.00
5574;BME280;2563;52.242;7.956;2024-03-08T08:36:14;100893.72;;;6.33;100.00
5574;BME280;2563;52.242;7.956;2024-03-08T08:38:40;100879.97;;;6.80;100.00
5574;BME280;2563;52.242;7.956;2024-03-08T08:41:05;100871.47;;;6.78;100.00
5574;BME280;2563;52.242;7.956;2024-03-08T08:43:31;100884.31;;;6.32;100.00
5574;BME280;2563;52.242;7.956;2024-03-08T08:45:58;100883.47;;;5.68;100.00
5574;BME280;2563;52.242;7.956;2024-03-08T08:48:23;100876.69;;;5.92;100.00
5574;BME280;2563;52.242;7.956;2024-03-08T08:50:50;100874.13;;;5.80;100.00
5574;BME280;2563;52.242;7.956;2024-03-08T08:53:17;100870.72;;;5.90;100.00
5574;BME280;2563;52.242;7.956;2024-03-08T08:55:43;100871.59;;;6.01;100.00
5574;BME280;2563;52.242;7.956;2024-03-08T08:58:10;100861.34;;;5.92;100.00
5574;BME280;2563;52.242;7.956;2024-03-08T09:00:36;100862.19;;;6.31;100.00
5574;BME280;2563;52.242;7.956;2024-03-08T09:03:02;100861.28;;;6.49;100.00
5574;BME280;2563;52.242;7.956;2024-03-08T09:05:28;100864.75;;;6.28;100.00
5574;BME280;2563;52.242;7.956;2024-03-08T09:07:53;100866.47;;;6.15;100.00
5574;BME280;2563;52.242;7.956;2024-03-08T09:10:19;100865.56;;;6.51;100.00
5574;BME280;2563;52.242;7.956;2024-03-08T09:12:44;100866.38;;;6.58;100.00
5574;BME280;2563;52.242;7.956;2024-03-08T09:15:10;100864.69;;;6.55;100.00
5574;BME280;2563;52.242;7.956;2024-03-08T09:17:38;100868.97;;;6.56;100.00
5574;BME280;2563;52.242;7.956;2024-03-08T09:20:06;100867.25;;;6.52;100.00
5574;BME280;2563;52.242;7.956;2024-03-08T09:22:32;100865.47;;;6.79;100.00
5574;BME280;2563;52.242;7.956;2024-03-08T09:24:57;100856.81;;;7.12;100.00
5574;BME280;2563;52.242;7.956;2024-03-08T09:27:22;100860.13;;;7.27;100.00
5574;BME280;2563;52.242;7.956;2024-03-08T09:29:48;100862.84;;;6.97;100.00
5574;BME280;2563;52.242;7.956;2024-03-08T09:32:14;100854.00;;;7.51;100.00
5574;BME280;2563;52.242;7.956;2024-03-08T09:34:39;100861.91;;;7.11;100.00
5574;BME280;2563;52.242;7.956;2024-03-08T09:37:05;100850.22;;;8.02;100.00
5574;BME280;2563;52.242;7.956;2024-03-08T09:39:31;100857.50;;;7.40;100.00
5574;BME280;2563;52.242;7.956;2024-03-08T09:41:56;100856.72;;;7.26;100.00
5574;BME280;2563;52.242;7.956;2024-03-08T09:44:22;100855.66;;;7.64;100.00
5574;BME280;2563;52.242;7.956;2024-03-08T09:46:49;100846.94;;;7.80;100.00
5574;BME280;2563;52.242;7.956;2024-03-08T09:49:16;100844.66;;;7.50;100.00
5574;BME280;2563;52.242;7.956;2024-03-08T09:51:42;100845.16;;;7.90;100.00
5574;BME280;2563;52.242;7.956;2024-03-08T09:54:07;100843.88;;;8.40;100.00
5574;BME280;2563;52.242;7.956;2024-03-08T09:56:34;100845.41;;;7.62;100.00
5574;BME280;2563;52.242;7.956;2024-03-08T09:59:00;100839.91;;;8.05;100.00
5574;BME280;2563;52.242;7.956;2024-03-08T10:01:25;100840.56;;;8.27;100.00
5574;BME280;2563;52.242;7.956;2024-03-08T10:03:52;100839.59;;;8.38;100.00
5574;BME280;2563;52.242;7.956;2024-03-08T10:06:22;100849.44;;;7.89;100.00
5574;BME280;2563;52.242;7.956;2024-03-08T10:08:48;100840.69;;;8.17;100.00
5574;BME280;2563;52.242;7.956;2024-03-08T10:11:13;100833.59;;;8.39;100.00
5574;BME280;2563;52.242;7.956;2024-03-08T10:13:39;100835.09;;;8.64;100.00
5574;BME280;2563;52.242;7.956;2024-03-08T10:16:06;100831.09;;;9.08;100.00
5574;BME280;2563;52.242;7.956;2024-03-08T10:18:32;100825.28;;;8.92;100.00
5574;BME280;2563;52.242;7.956;2024-03-08T10:21:08;100822.50;;;9.09;100.00
5574;BME280;2563;52.242;7.956;2024-03-08T10:23:35;100828.22;;;8.63;100.00
5574;BME280;2563;52.242;7.956;2024-03-08T10:26:15;100820.47;;;8.68;100.00
5574;BME280;2563;52.242;7.956;2024-03-08T10:28:42;100820.53;;;8.62;100.00
5574;BME280;2563;52.242;7.956;2024-03-08T10:31:11;100817.47;;;9.03;100.00
5574;BME280;2563;52.242;7.956;2024-03-08T10:33:36;100807.88;;;9.14;100.00
5574;BME280;2563;52.242;7.956;2024-03-08T10:36:07;100806.56;;;8.86;100.00
5574;BME280;2563;52.242;7.956;2024-03-08T10:38:36;100807.19;;;9.03;100.00
5574;BME280;2563;52.242;7.956;2024-03-08T10:41:03;100800.97;;;9.74;100.00
5574;BME280;2563;52.242;7.956;2024-03-08T10:43:32;100803.47;;;9.78;100.00
5574;BME280;2563;52.242;7.956;2024-03-08T10:46:21;100801.13;;;9.65;100.00
5574;BME280;2563;52.242;7.956;2024-03-08T10:48:52;100800.66;;;9.92;100.00
5574;BME280;2563;52.242;7.956;2024-03-08T10:51:19;100813.13;;;9.66;100.00
5574;BME280;2563;52.242;7.956;2024-03-08T10:53:46;100830.84;;;9.81;100.00
5574;BME280;2563;52.242;7.956;2024-03-08T10:56:13;100849.31;;;9.50;100.00
5574;BME280;2563;52.242;7.956;2024-03-08T10:58:40;100853.19;;;9.77;100.00
5574;BME280;2563;52.242;7.956;2024-03-08T11:01:06;100848.22;;;10.18;100.00
5574;BME280;2563;52.242;7.956;2024-03-08T11:06:16;100886.09;;;10.59;100.00
5574;BME280;2563;52.242;7.956;2024-03-08T11:08:42;100877.03;;;10.38;100.00
5574;BME280;2563;52.242;7.956;2024-03-08T11:11:24;100857.88;;;10.55;100.00
5574;BME280;2563;52.242;7.956;2024-03-08T11:13:55;100838.94;;;10.57;100.00
5574;BME280;2563;52.242;7.956;2024-03-08T11:21:31;100839.97;;;11.31;100.00
5574;BME280;2563;52.242;7.956;2024-03-08T11:24:01;100828.53;;;11.43;100.00
5574;BME280;2563;52.242;7.956;2024-03-08T11:26:27;100819.16;;;11.40;100.00
5574;BME280;2563;52.242;7.956;2024-03-08T11:28:52;100821.28;;;10.82;100.00
5574;BME280;2563;52.242;7.956;2024-03-08T11:33:46;100818.22;;;10.18;100.00
5574;BME280;2563;52.242;7.956;2024-03-08T11:36:22;100810.06;;;10.85;100.00
5574;BME280;2563;52.242;7.956;2024-03-08T11:38:48;100793.16;;;10.73;100.00
5574;BME280;2563;52.242;7.956;2024-03-08T11:41:16;100799.00;;;10.39;100.00
5574;BME280;2563;52.242;7.956;2024-03-08T11:43:43;100782.78;;;10.34;100.00
5574;BME280;2563;52.242;7.956;2024-03-08T11:46:09;100779.09;;;10.46;100.00
5574;BME280;2563;52.242;7.956;2024-03-08T11:48:34;100768.56;;;10.13;100.00
5574;BME280;2563;52.242;7.956;2024-03-08T11:51:01;100786.03;;;9.96;100.00
5574;BME280;2563;52.242;7.956;2024-03-08T11:53:28;100774.16;;;9.89;100.00
5574;BME280;2563;52.242;7.956;2024-03-08T11:55:53;100776.47;;;10.02;100.00
5574;BME280;2563;52.242;7.956;2024-03-08T11:58:19;100771.00;;;10.21;100.00
5574;BME280;2563;52.242;7.956;2024-03-08T12:00:44;100771.22;;;10.09;100.00
5574;BME280;2563;52.242;7.956;2024-03-08T12:03:11;100764.34;;;10.11;100.00
5574;BME280;2563;52.242;7.956;2024-03-08T12:05:37;100762.28;;;10.72;100.00
5574;BME280;2563;52.242;7.956;2024-03-08T12:08:03;100756.28;;;10.29;100.00
5574;BME280;2563;52.242;7.956;2024-03-08T12:10:34;100735.34;;;10.46;100.00
5574;BME280;2563;52.242;7.956;2024-03-08T12:13:00;100745.28;;;10.64;100.00
5574;BME280;2563;52.242;7.956;2024-03-08T12:15:26;100737.56;;;10.63;100.00
5574;BME280;2563;52.242;7.956;2024-03-08T12:17:53;100745.03;;;11.14;100.00
5574;BME280;2563;52.242;7.956;2024-03-08T12:20:22;100719.06;;;10.46;100.00
5574;BME280;2563;52.242;7.956;2024-03-08T12:22:49;100713.47;;;10.67;100.00
5574;BME280;2563;52.242;7.956;2024-03-08T12:25:15;100707.72;;;10.95;100.00
5574;BME280;2563;52.242;7.956;2024-03-08T12:27:42;100717.88;;;10.20;100.00
5574;BME280;2563;52.242;7.956;2024-03-08T12:32:56;100696.41;;;10.19;100.00
5574;BME280;2563;52.242;7.956;2024-03-08T12:35:27;100686.78;;;10.71;100.00
5574;BME280;2563;52.242;7.956;2024-03-08T12:37:53;100685.81;;;10.36;100.00
5574;BME280;2563;52.242;7.956;2024-03-08T12:40:26;100685.63;;;10.04;100.00
5574;BME280;2563;52.242;7.956;2024-03-08T12:42:52;100676.31;;;10.77;100.00
5574;BME280;2563;52.242;7.956;2024-03-08T12:45:18;100673.34;;;10.58;100.00
5574;BME280;2563;52.242;7.956;2024-03-08T12:47:43;100666.13;;;10.34;100.00
5574;BME280;2563;52.242;7.956;2024-03-08T12:50:10;100656.38;;;10.50;100.00
5574;BME280;2563;52.242;7.956;2024-03-08T12:52:35;100655.34;;;10.57;100.00
5574;BME280;2563;52.242;7.956;2024-03-08T12:55:02;100662.22;;;10.94;100.00
5574;BME280;2563;52.242;7.956;2024-03-08T12:57:28;100654.25;;;11.04;100.00
5574;BME280;2563;52.242;7.956;2024-03-08T12:59:53;100647.91;;;10.82;100.00
5574;BME280;2563;52.242;7.956;2024-03-08T13:02:19;100646.19;;;10.45;100.00
5574;BME280;2563;52.242;7.956;2024-03-08T13:04:45;100658.38;;;10.37;100.00
5574;BME280;2563;52.242;7.956;2024-03-08T13:07:11;100639.44;;;10.39;100.00
5574;BME280;2563;52.242;7.956;2024-03-08T13:09:36;100639.56;;;10.35;100.00
5574;BME280;2563;52.242;7.956;2024-03-08T13:12:03;100627.81;;;10.60;100.00
5574;BME280;2563;52.242;7.956;2024-03-08T13:14:28;100629.97;;;10.41;100.00